sensor_id;sensor_type;location;lat;lon;timestamp;P1;durP1;ratioP1;P2;durP2;ratioP2
71606;SDS011;60641;53.556;9.914;2023-12-20T00:00:06;10.10;;;1.30;;
71606;SDS011;60641;53.556;9.914;2023-12-20T00:02:33;9.50;;;1.10;;
71606;SDS011;60641;53.556;9.914;2023-12-20T00:04:59;9.50;;;1.30;;
71606;SDS011;60641;53.556;9.914;2023-12-20T00:07:26;9.50;;;1.10;;
71606;SDS011;60641;53.556;9.914;2023-12-20T00:09:52;10.50;;;1.10;;
71606;SDS011;60641;53.556;9.914;2023-12-20T00:12:18;8.60;;;0.80;;
71606;SDS011;60641;53.556;9.914;2023-12-20T00:14:45;12.30;;;1.30;;
71606;SDS011;60641;53.556;9.914;2023-12-20T00:17:11;9.40;;;1.10;;
71606;SDS011;60641;53.556;9.914;2023-12-20T00:19:38;8.30;;;0.90;;
71606;SDS011;60641;53.556;9.914;2023-12-20T00:22:04;5.60;;;0.80;;
71606;SDS011;60641;53.556;9.914;2023-12-20T00:24:31;8.00;;;1.00;;
71606;SDS011;60641;53.556;9.914;2023-12-20T00:26:57;11.90;;;1.00;;
71606;SDS011;60641;53.556;9.914;2023-12-20T00:29:23;10.20;;;1.00;;
71606;SDS011;60641;53.556;9.914;2023-12-20T00:31:50;9.80;;;1.20;;
71606;SDS011;60641;53.556;9.914;2023-12-20T00:34:16;8.80;;;1.10;;
71606;SDS011;60641;53.556;9.914;2023-12-20T00:36:43;12.30;;;1.10;;
71606;SDS011;60641;53.556;9.914;2023-12-20T00:39:09;11.90;;;1.20;;
71606;SDS011;60641;53.556;9.914;2023-12-20T00:41:35;8.40;;;1.30;;
71606;SDS011;60641;53.556;9.914;2023-12-20T00:44:02;11.50;;;1.50;;
71606;SDS011;60641;53.556;9.914;2023-12-20T00:46:29;9.90;;;1.10;;
71606;SDS011;60641;53.556;9.914;2023-12-20T00:48:55;9.20;;;1.00;;
71606;SDS011;60641;53.556;9.914;2023-12-20T00:51:22;11.70;;;1.20;;
71606;SDS011;60641;53.556;9.914;2023-12-20T00:53:49;7.70;;;1.10;;
71606;SDS011;60641;53.556;9.914;2023-12-20T00:56:16;10.30;;;0.90;;
71606;SDS011;60641;53.556;9.914;2023-12-20T00:58:43;6.80;;;1.10;;
71606;SDS011;60641;53.556;9.914;2023-12-20T01:01:09;10.40;;;1.20;;
71606;SDS011;60641;53.556;9.914;2023-12-20T01:03:36;10.70;;;1.40;;
71606;SDS011;60641;53.556;9.914;2023-12-20T01:06:02;12.20;;;1.10;;
71606;SDS011;60641;53.556;9.914;2023-12-20T01:08:30;8.10;;;1.00;;
71606;SDS011;60641;53.556;9.914;2023-12-20T01:10:57;7.10;;;0.80;;
71606;SDS011;60641;53.556;9.914;2023-12-20T01:13:24;10.40;;;1.10;;
71606;SDS011;60641;53.556;9.914;2023-12-20T01:15:50;9.40;;;1.20;;
71606;SDS011;60641;53.556;9.914;2023-12-20T01:18:16;13.80;;;1.10;;
71606;SDS011;60641;53.556;9.914;2023-12-20T01:20:43;7.00;;;1.20;;
71606;SDS011;60641;53.556;9.914;2023-12-20T01:23:09;10.00;;;1.10;;
71606;SDS011;60641;53.556;9.914;2023-12-20T01:25:36;10.70;;;1.00;;
71606;SDS011;60641;53.556;9.914;2023-12-20T01:28:02;9.90;;;1.10;;
71606;SDS011;60641;53.556;9.914;2023-12-20T01:30:29;8.20;;;1.00;;
71606;SDS011;60641;53.556;9.914;2023-12-20T01:32:55;10.20;;;0.90;;
71606;SDS011;60641;53.556;9.914;2023-12-20T01:35:22;11.40;;;1.00;;
71606;SDS011;60641;53.556;9.914;2023-12-20T01:37:48;11.60;;;1.00;;
71606;SDS011;60641;53.556;9.914;2023-12-20T01:40:15;10.40;;;1.20;;
71606;SDS011;60641;53.556;9.914;2023-12-20T01:42:41;10.80;;;1.20;;
71606;SDS011;60641;53.556;9.914;2023-12-20T01:45:08;12.50;;;1.10;;
71606;SDS011;60641;53.556;9.914;2023-12-20T01:47:35;11.30;;;1.30;;
71606;SDS011;60641;53.556;9.914;2023-12-20T01:50:02;9.80;;;1.10;;
71606;SDS011;60641;53.556;9.914;2023-12-20T01:52:29;15.30;;;1.50;;
71606;SDS011;60641;53.556;9.914;2023-12-20T01:54:56;9.10;;;0.90;;
71606;SDS011;60641;53.556;9.914;2023-12-20T01:57:28;9.60;;;1.30;;
71606;SDS011;60641;53.556;9.914;2023-12-20T01:59:55;7.90;;;1.00;;
71606;SDS011;60641;53.556;9.914;2023-12-20T02:02:21;13.10;;;1.40;;
71606;SDS011;60641;53.556;9.914;2023-12-20T02:04:48;10.60;;;1.10;;
71606;SDS011;60641;53.556;9.914;2023-12-20T02:07:16;11.40;;;1.00;;
71606;SDS011;60641;53.556;9.914;2023-12-20T02:09:43;8.90;;;0.90;;
71606;SDS011;60641;53.556;9.914;2023-12-20T02:12:10;9.70;;;1.00;;
71606;SDS011;60641;53.556;9.914;2023-12-20T02:14:37;10.20;;;1.20;;
71606;SDS011;60641;53.556;9.914;2023-12-20T02:17:03;9.20;;;1.00;;
71606;SDS011;60641;53.556;9.914;2023-12-20T02:19:29;9.20;;;1.10;;
71606;SDS011;60641;53.556;9.914;2023-12-20T02:22:06;11.10;;;1.10;;
71606;SDS011;60641;53.556;9.914;2023-12-20T02:24:33;11.10;;;1.10;;
71606;SDS011;60641;53.556;9.914;2023-12-20T02:26:59;10.70;;;1.00;;
71606;SDS011;60641;53.556;9.914;2023-12-20T02:29:26;7.40;;;0.90;;
71606;SDS011;60641;53.556;9.914;2023-12-20T02:31:53;9.50;;;0.90;;
71606;SDS011;60641;53.556;9.914;2023-12-20T02:34:19;8.80;;;1.10;;
71606;SDS011;60641;53.556;9.914;2023-12-20T02:36:46;9.50;;;1.30;;
71606;SDS011;60641;53.556;9.914;2023-12-20T02:39:12;9.20;;;1.00;;
71606;SDS011;60641;53.556;9.914;2023-12-20T02:41:39;10.00;;;1.10;;
71606;SDS011;60641;53.556;9.914;2023-12-20T02:44:05;9.20;;;1.20;;
71606;SDS011;60641;53.556;9.914;2023-12-20T02:46:32;7.70;;;0.90;;
71606;SDS011;60641;53.556;9.914;2023-12-20T02:48:58;10.50;;;1.30;;
71606;SDS011;60641;53.556;9.914;2023-12-20T02:51:25;9.50;;;1.40;;
71606;SDS011;60641;53.556;9.914;2023-12-20T02:53:51;14.50;;;1.10;;
71606;SDS011;60641;53.556;9.914;2023-12-20T02:56:17;7.30;;;1.00;;
71606;SDS011;60641;53.556;9.914;2023-12-20T02:58:44;9.80;;;1.10;;
71606;SDS011;60641;53.556;9.914;2023-12-20T03:01:10;15.40;;;1.40;;
71606;SDS011;60641;53.556;9.914;2023-12-20T03:03:37;9.00;;;0.90;;
71606;SDS011;60641;53.556;9.914;2023-12-20T03:06:03;11.60;;;1.00;;
71606;SDS011;60641;53.556;9.914;2023-12-20T03:08:29;9.30;;;1.30;;
71606;SDS011;60641;53.556;9.914;2023-12-20T03:10:56;10.40;;;1.00;;
71606;SDS011;60641;53.556;9.914;2023-12-20T03:13:22;9.00;;;0.90;;
71606;SDS011;60641;53.556;9.914;2023-12-20T03:15:49;11.00;;;1.50;;
71606;SDS011;60641;53.556;9.914;2023-12-20T03:18:15;9.20;;;1.20;;
71606;SDS011;60641;53.556;9.914;2023-12-20T03:20:42;8.40;;;0.90;;
71606;SDS011;60641;53.556;9.914;2023-12-20T03:23:09;10.20;;;1.20;;
71606;SDS011;60641;53.556;9.914;2023-12-20T03:25:35;10.60;;;0.90;;
71606;SDS011;60641;53.556;9.914;2023-12-20T03:28:01;10.30;;;1.20;;
71606;SDS011;60641;53.556;9.914;2023-12-20T03:30:28;7.70;;;1.00;;
71606;SDS011;60641;53.556;9.914;2023-12-20T03:32:54;9.00;;;1.30;;
71606;SDS011;60641;53.556;9.914;2023-12-20T03:35:21;8.10;;;1.00;;
71606;SDS011;60641;53.556;9.914;2023-12-20T03:37:47;8.40;;;0.80;;
71606;SDS011;60641;53.556;9.914;2023-12-20T03:40:14;8.80;;;1.00;;
71606;SDS011;60641;53.556;9.914;2023-12-20T03:42:41;12.40;;;1.00;;
71606;SDS011;60641;53.556;9.914;2023-12-20T03:45:07;8.90;;;1.00;;
71606;SDS011;60641;53.556;9.914;2023-12-20T03:47:35;8.50;;;0.80;;
71606;SDS011;60641;53.556;9.914;2023-12-20T03:50:01;7.90;;;0.90;;
71606;SDS011;60641;53.556;9.914;2023-12-20T03:52:28;9.60;;;1.10;;
71606;SDS011;60641;53.556;9.914;2023-12-20T03:54:54;9.70;;;0.90;;
71606;SDS011;60641;53.556;9.914;2023-12-20T03:57:21;11.70;;;1.20;;
71606;SDS011;60641;53.556;9.914;2023-12-20T03:59:47;8.70;;;0.80;;
71606;SDS011;60641;53.556;9.914;2023-12-20T04:02:14;10.10;;;1.00;;
71606;SDS011;60641;53.556;9.914;2023-12-20T04:04:40;10.60;;;0.90;;
71606;SDS011;60641;53.556;9.914;2023-12-20T04:07:07;8.70;;;1.20;;
71606;SDS011;60641;53.556;9.914;2023-12-20T04:09:33;10.60;;;0.90;;
71606;SDS011;60641;53.556;9.914;2023-12-20T04:11:59;10.60;;;1.10;;
71606;SDS011;60641;53.556;9.914;2023-12-20T04:14:26;10.80;;;1.70;;
71606;SDS011;60641;53.556;9.914;2023-12-20T04:16:53;10.90;;;1.10;;
71606;SDS011;60641;53.556;9.914;2023-12-20T04:19:20;11.60;;;1.10;;
71606;SDS011;60641;53.556;9.914;2023-12-20T04:21:46;10.20;;;1.00;;
71606;SDS011;60641;53.556;9.914;2023-12-20T04:24:12;8.90;;;0.90;;
71606;SDS011;60641;53.556;9.914;2023-12-20T04:26:39;9.30;;;0.90;;
71606;SDS011;60641;53.556;9.914;2023-12-20T04:29:05;9.40;;;0.90;;
71606;SDS011;60641;53.556;9.914;2023-12-20T04:31:32;10.30;;;0.90;;
71606;SDS011;60641;53.556;9.914;2023-12-20T04:33:58;8.30;;;1.00;;
71606;SDS011;60641;53.556;9.914;2023-12-20T04:36:25;10.40;;;1.10;;
71606;SDS011;60641;53.556;9.914;2023-12-20T04:38:53;11.70;;;1.30;;
71606;SDS011;60641;53.556;9.914;2023-12-20T04:41:20;12.80;;;1.20;;
71606;SDS011;60641;53.556;9.914;2023-12-20T04:43:46;11.40;;;1.30;;
71606;SDS011;60641;53.556;9.914;2023-12-20T04:46:12;9.50;;;0.90;;
71606;SDS011;60641;53.556;9.914;2023-12-20T04:48:39;8.60;;;0.90;;
71606;SDS011;60641;53.556;9.914;2023-12-20T04:51:05;10.30;;;1.10;;
71606;SDS011;60641;53.556;9.914;2023-12-20T04:53:32;8.10;;;1.20;;
71606;SDS011;60641;53.556;9.914;2023-12-20T04:55:58;13.90;;;1.40;;
71606;SDS011;60641;53.556;9.914;2023-12-20T04:58:25;9.90;;;1.20;;
71606;SDS011;60641;53.556;9.914;2023-12-20T05:00:52;8.70;;;1.00;;
71606;SDS011;60641;53.556;9.914;2023-12-20T05:03:18;10.20;;;1.00;;
71606;SDS011;60641;53.556;9.914;2023-12-20T05:05:44;13.10;;;1.30;;
71606;SDS011;60641;53.556;9.914;2023-12-20T05:08:11;9.70;;;1.30;;
71606;SDS011;60641;53.556;9.914;2023-12-20T05:10:37;8.70;;;1.30;;
71606;SDS011;60641;53.556;9.914;2023-12-20T05:13:04;7.60;;;1.00;;
71606;SDS011;60641;53.556;9.914;2023-12-20T05:15:31;10.10;;;1.70;;
71606;SDS011;60641;53.556;9.914;2023-12-20T05:17:57;11.90;;;1.40;;
71606;SDS011;60641;53.556;9.914;2023-12-20T05:20:24;11.00;;;1.30;;
71606;SDS011;60641;53.556;9.914;2023-12-20T05:22:50;16.20;;;1.30;;
71606;SDS011;60641;53.556;9.914;2023-12-20T05:25:17;10.50;;;1.50;;
71606;SDS011;60641;53.556;9.914;2023-12-20T05:27:43;8.50;;;0.90;;
71606;SDS011;60641;53.556;9.914;2023-12-20T05:30:10;11.90;;;1.30;;
71606;SDS011;60641;53.556;9.914;2023-12-20T05:32:37;10.10;;;1.00;;
71606;SDS011;60641;53.556;9.914;2023-12-20T05:35:03;11.70;;;1.30;;
71606;SDS011;60641;53.556;9.914;2023-12-20T05:37:30;12.40;;;1.30;;
71606;SDS011;60641;53.556;9.914;2023-12-20T05:39:56;10.30;;;1.20;;
71606;SDS011;60641;53.556;9.914;2023-12-20T05:42:23;12.60;;;1.40;;
71606;SDS011;60641;53.556;9.914;2023-12-20T05:44:49;11.10;;;1.40;;
71606;SDS011;60641;53.556;9.914;2023-12-20T05:47:16;10.80;;;1.50;;
71606;SDS011;60641;53.556;9.914;2023-12-20T05:49:43;11.30;;;1.50;;
71606;SDS011;60641;53.556;9.914;2023-12-20T05:52:10;10.20;;;1.30;;
71606;SDS011;60641;53.556;9.914;2023-12-20T05:54:36;9.60;;;1.30;;
71606;SDS011;60641;53.556;9.914;2023-12-20T05:57:03;13.20;;;1.40;;
71606;SDS011;60641;53.556;9.914;2023-12-20T05:59:30;10.60;;;1.50;;
71606;SDS011;60641;53.556;9.914;2023-12-20T06:01:56;8.90;;;1.10;;
71606;SDS011;60641;53.556;9.914;2023-12-20T06:04:23;10.50;;;1.30;;
71606;SDS011;60641;53.556;9.914;2023-12-20T06:06:49;10.40;;;1.30;;
71606;SDS011;60641;53.556;9.914;2023-12-20T06:09:16;9.70;;;1.30;;
71606;SDS011;60641;53.556;9.914;2023-12-20T06:11:42;11.40;;;1.40;;
71606;SDS011;60641;53.556;9.914;2023-12-20T06:14:09;10.30;;;1.30;;
71606;SDS011;60641;53.556;9.914;2023-12-20T06:16:35;9.60;;;1.40;;
71606;SDS011;60641;53.556;9.914;2023-12-20T06:19:02;10.20;;;1.40;;
71606;SDS011;60641;53.556;9.914;2023-12-20T06:21:28;10.60;;;1.40;;
71606;SDS011;60641;53.556;9.914;2023-12-20T06:23:55;9.30;;;1.10;;
71606;SDS011;60641;53.556;9.914;2023-12-20T06:26:21;8.40;;;1.30;;
71606;SDS011;60641;53.556;9.914;2023-12-20T06:28:47;10.40;;;1.10;;
71606;SDS011;60641;53.556;9.914;2023-12-20T06:31:14;10.20;;;1.20;;
71606;SDS011;60641;53.556;9.914;2023-12-20T06:33:41;6.80;;;1.10;;
71606;SDS011;60641;53.556;9.914;2023-12-20T06:36:10;10.50;;;1.20;;
71606;SDS011;60641;53.556;9.914;2023-12-20T06:38:38;10.30;;;1.50;;
71606;SDS011;60641;53.556;9.914;2023-12-20T06:41:05;8.30;;;1.30;;
71606;SDS011;60641;53.556;9.914;2023-12-20T06:43:32;11.40;;;1.40;;
71606;SDS011;60641;53.556;9.914;2023-12-20T06:46:02;11.70;;;1.40;;
71606;SDS011;60641;53.556;9.914;2023-12-20T06:48:29;11.20;;;1.20;;
71606;SDS011;60641;53.556;9.914;2023-12-20T06:50:55;13.00;;;1.40;;
71606;SDS011;60641;53.556;9.914;2023-12-20T06:53:21;12.10;;;1.50;;
71606;SDS011;60641;53.556;9.914;2023-12-20T06:55:48;9.40;;;1.40;;
71606;SDS011;60641;53.556;9.914;2023-12-20T06:58:14;11.90;;;1.30;;
71606;SDS011;60641;53.556;9.914;2023-12-20T07:00:41;10.30;;;1.50;;
71606;SDS011;60641;53.556;9.914;2023-12-20T07:03:08;10.50;;;1.40;;
71606;SDS011;60641;53.556;9.914;2023-12-20T07:05:35;10.40;;;1.60;;
71606;SDS011;60641;53.556;9.914;2023-12-20T07:08:01;13.60;;;1.50;;
71606;SDS011;60641;53.556;9.914;2023-12-20T07:10:28;10.60;;;1.20;;
71606;SDS011;60641;53.556;9.914;2023-12-20T07:12:54;13.20;;;2.00;;
71606;SDS011;60641;53.556;9.914;2023-12-20T07:15:21;9.20;;;1.50;;
71606;SDS011;60641;53.556;9.914;2023-12-20T07:17:48;12.50;;;1.30;;
71606;SDS011;60641;53.556;9.914;2023-12-20T07:20:14;16.30;;;1.60;;
71606;SDS011;60641;53.556;9.914;2023-12-20T07:22:41;12.10;;;1.50;;
71606;SDS011;60641;53.556;9.914;2023-12-20T07:25:07;10.60;;;1.70;;
71606;SDS011;60641;53.556;9.914;2023-12-20T07:27:34;14.40;;;1.90;;
71606;SDS011;60641;53.556;9.914;2023-12-20T07:30:00;11.40;;;1.50;;
71606;SDS011;60641;53.556;9.914;2023-12-20T07:32:27;12.20;;;2.10;;
71606;SDS011;60641;53.556;9.914;2023-12-20T07:34:53;15.10;;;1.70;;
71606;SDS011;60641;53.556;9.914;2023-12-20T07:37:20;14.30;;;1.50;;
71606;SDS011;60641;53.556;9.914;2023-12-20T07:39:47;13.60;;;1.70;;
71606;SDS011;60641;53.556;9.914;2023-12-20T07:42:13;11.40;;;1.70;;
71606;SDS011;60641;53.556;9.914;2023-12-20T07:44:40;12.00;;;1.90;;
71606;SDS011;60641;53.556;9.914;2023-12-20T07:47:06;12.30;;;1.50;;
71606;SDS011;60641;53.556;9.914;2023-12-20T07:49:32;11.80;;;2.20;;
71606;SDS011;60641;53.556;9.914;2023-12-20T07:51:59;12.40;;;1.40;;
71606;SDS011;60641;53.556;9.914;2023-12-20T07:54:25;12.20;;;1.20;;
71606;SDS011;60641;53.556;9.914;2023-12-20T07:56:52;13.10;;;1.50;;
71606;SDS011;60641;53.556;9.914;2023-12-20T07:59:18;15.20;;;1.80;;
71606;SDS011;60641;53.556;9.914;2023-12-20T08:01:45;14.20;;;1.60;;
71606;SDS011;60641;53.556;9.914;2023-12-20T08:04:11;9.70;;;1.30;;
71606;SDS011;60641;53.556;9.914;2023-12-20T08:06:38;10.80;;;1.50;;
71606;SDS011;60641;53.556;9.914;2023-12-20T08:09:04;8.70;;;1.50;;
71606;SDS011;60641;53.556;9.914;2023-12-20T08:11:31;10.40;;;1.60;;
71606;SDS011;60641;53.556;9.914;2023-12-20T08:13:57;13.60;;;1.80;;
71606;SDS011;60641;53.556;9.914;2023-12-20T08:16:24;10.60;;;1.30;;
71606;SDS011;60641;53.556;9.914;2023-12-20T08:18:50;10.40;;;1.70;;
71606;SDS011;60641;53.556;9.914;2023-12-20T08:21:17;13.50;;;1.80;;
71606;SDS011;60641;53.556;9.914;2023-12-20T08:23:46;12.00;;;1.60;;
71606;SDS011;60641;53.556;9.914;2023-12-20T08:26:13;10.50;;;1.50;;
71606;SDS011;60641;53.556;9.914;2023-12-20T08:28:40;12.70;;;1.80;;
71606;SDS011;60641;53.556;9.914;2023-12-20T08:31:06;11.30;;;1.30;;
71606;SDS011;60641;53.556;9.914;2023-12-20T08:33:40;12.00;;;1.80;;
71606;SDS011;60641;53.556;9.914;2023-12-20T08:36:06;11.90;;;1.50;;
71606;SDS011;60641;53.556;9.914;2023-12-20T08:38:33;10.00;;;1.50;;
71606;SDS011;60641;53.556;9.914;2023-12-20T08:40:59;11.80;;;1.40;;
71606;SDS011;60641;53.556;9.914;2023-12-20T08:43:26;13.40;;;1.60;;
71606;SDS011;60641;53.556;9.914;2023-12-20T08:45:52;10.80;;;1.50;;
71606;SDS011;60641;53.556;9.914;2023-12-20T08:48:19;12.80;;;1.60;;
71606;SDS011;60641;53.556;9.914;2023-12-20T08:50:45;11.40;;;1.20;;
71606;SDS011;60641;53.556;9.914;2023-12-20T08:53:14;10.70;;;1.20;;
71606;SDS011;60641;53.556;9.914;2023-12-20T08:55:42;9.90;;;1.30;;
71606;SDS011;60641;53.556;9.914;2023-12-20T08:58:08;11.50;;;1.50;;
71606;SDS011;60641;53.556;9.914;2023-12-20T09:00:35;11.00;;;1.80;;
71606;SDS011;60641;53.556;9.914;2023-12-20T09:03:01;10.10;;;1.20;;
71606;SDS011;60641;53.556;9.914;2023-12-20T09:05:28;9.60;;;1.30;;
71606;SDS011;60641;53.556;9.914;2023-12-20T09:07:55;12.10;;;1.60;;
71606;SDS011;60641;53.556;9.914;2023-12-20T09:10:21;9.20;;;1.30;;
71606;SDS011;60641;53.556;9.914;2023-12-20T09:12:49;9.30;;;1.50;;
71606;SDS011;60641;53.556;9.914;2023-12-20T09:15:16;10.60;;;1.30;;
71606;SDS011;60641;53.556;9.914;2023-12-20T09:17:42;8.30;;;1.00;;
71606;SDS011;60641;53.556;9.914;2023-12-20T09:20:10;8.70;;;1.10;;
71606;SDS011;60641;53.556;9.914;2023-12-20T09:22:36;10.20;;;0.90;;
71606;SDS011;60641;53.556;9.914;2023-12-20T09:25:04;8.90;;;1.10;;
71606;SDS011;60641;53.556;9.914;2023-12-20T09:27:31;7.30;;;0.90;;
71606;SDS011;60641;53.556;9.914;2023-12-20T09:29:58;6.30;;;0.70;;
71606;SDS011;60641;53.556;9.914;2023-12-20T09:32:24;6.30;;;1.10;;
71606;SDS011;60641;53.556;9.914;2023-12-20T09:34:50;6.50;;;0.80;;
71606;SDS011;60641;53.556;9.914;2023-12-20T09:37:17;6.10;;;0.90;;
71606;SDS011;60641;53.556;9.914;2023-12-20T09:39:43;8.70;;;0.70;;
71606;SDS011;60641;53.556;9.914;2023-12-20T09:42:11;2.90;;;0.30;;
71606;SDS011;60641;53.556;9.914;2023-12-20T09:44:38;3.60;;;0.30;;
71606;SDS011;60641;53.556;9.914;2023-12-20T09:47:08;4.50;;;1.00;;
71606;SDS011;60641;53.556;9.914;2023-12-20T09:49:35;3.00;;;0.40;;
71606;SDS011;60641;53.556;9.914;2023-12-20T09:52:01;2.30;;;0.30;;
71606;SDS011;60641;53.556;9.914;2023-12-20T09:54:31;1.60;;;0.30;;
71606;SDS011;60641;53.556;9.914;2023-12-20T09:56:57;2.80;;;0.40;;
71606;SDS011;60641;53.556;9.914;2023-12-20T09:59:24;1.90;;;0.50;;
71606;SDS011;60641;53.556;9.914;2023-12-20T10:01:51;4.00;;;0.50;;
71606;SDS011;60641;53.556;9.914;2023-12-20T10:04:17;2.00;;;0.30;;
71606;SDS011;60641;53.556;9.914;2023-12-20T10:06:44;1.30;;;0.30;;
71606;SDS011;60641;53.556;9.914;2023-12-20T10:09:11;2.30;;;0.30;;
71606;SDS011;60641;53.556;9.914;2023-12-20T10:11:38;3.20;;;0.40;;
71606;SDS011;60641;53.556;9.914;2023-12-20T10:14:05;2.60;;;0.30;;
71606;SDS011;60641;53.556;9.914;2023-12-20T10:16:32;1.80;;;0.20;;
71606;SDS011;60641;53.556;9.914;2023-12-20T10:19:00;1.70;;;0.30;;
71606;SDS011;60641;53.556;9.914;2023-12-20T10:21:30;3.50;;;0.60;;
71606;SDS011;60641;53.556;9.914;2023-12-20T10:23:57;3.20;;;0.50;;
71606;SDS011;60641;53.556;9.914;2023-12-20T10:26:27;4.90;;;0.50;;
71606;SDS011;60641;53.556;9.914;2023-12-20T10:28:55;3.20;;;0.50;;
71606;SDS011;60641;53.556;9.914;2023-12-20T10:31:29;4.70;;;0.40;;
71606;SDS011;60641;53.556;9.914;2023-12-20T10:33:59;2.80;;;0.30;;
71606;SDS011;60641;53.556;9.914;2023-12-20T10:36:28;2.70;;;0.50;;
71606;SDS011;60641;53.556;9.914;2023-12-20T10:38:56;3.30;;;0.20;;
71606;SDS011;60641;53.556;9.914;2023-12-20T10:41:27;2.50;;;0.50;;
71606;SDS011;60641;53.556;9.914;2023-12-20T10:43:55;2.90;;;0.40;;
71606;SDS011;60641;53.556;9.914;2023-12-20T10:46:23;3.60;;;0.40;;
71606;SDS011;60641;53.556;9.914;2023-12-20T10:48:56;5.90;;;0.50;;
71606;SDS011;60641;53.556;9.914;2023-12-20T10:51:23;3.30;;;0.50;;
71606;SDS011;60641;53.556;9.914;2023-12-20T10:53:52;3.90;;;0.40;;
71606;SDS011;60641;53.556;9.914;2023-12-20T10:56:20;6.90;;;0.40;;
71606;SDS011;60641;53.556;9.914;2023-12-20T10:58:50;4.40;;;0.40;;
71606;SDS011;60641;53.556;9.914;2023-12-20T11:01:17;3.60;;;0.50;;
71606;SDS011;60641;53.556;9.914;2023-12-20T11:03:48;6.40;;;0.60;;
71606;SDS011;60641;53.556;9.914;2023-12-20T11:11:29;4.80;;;0.50;;
71606;SDS011;60641;53.556;9.914;2023-12-20T11:14:03;4.60;;;0.50;;
71606;SDS011;60641;53.556;9.914;2023-12-20T11:16:32;9.00;;;0.70;;
71606;SDS011;60641;53.556;9.914;2023-12-20T11:19:04;3.90;;;0.50;;
71606;SDS011;60641;53.556;9.914;2023-12-20T11:21:31;8.90;;;0.80;;
71606;SDS011;60641;53.556;9.914;2023-12-20T11:23:59;7.70;;;0.70;;
71606;SDS011;60641;53.556;9.914;2023-12-20T11:26:26;6.50;;;0.60;;
71606;SDS011;60641;53.556;9.914;2023-12-20T11:31:58;7.20;;;0.80;;
71606;SDS011;60641;53.556;9.914;2023-12-20T11:34:31;9.10;;;0.70;;
71606;SDS011;60641;53.556;9.914;2023-12-20T11:36:58;8.60;;;1.30;;
71606;SDS011;60641;53.556;9.914;2023-12-20T11:39:26;8.40;;;0.70;;
71606;SDS011;60641;53.556;9.914;2023-12-20T11:41:55;4.70;;;0.70;;
71606;SDS011;60641;53.556;9.914;2023-12-20T11:44:25;8.00;;;1.00;;
71606;SDS011;60641;53.556;9.914;2023-12-20T11:46:51;6.80;;;0.90;;
71606;SDS011;60641;53.556;9.914;2023-12-20T11:49:18;7.90;;;0.70;;
71606;SDS011;60641;53.556;9.914;2023-12-20T11:51:44;8.40;;;0.80;;
71606;SDS011;60641;53.556;9.914;2023-12-20T11:54:11;9.10;;;0.90;;
71606;SDS011;60641;53.556;9.914;2023-12-20T11:56:37;9.50;;;1.10;;
71606;SDS011;60641;53.556;9.914;2023-12-20T11:59:04;9.40;;;1.30;;
71606;SDS011;60641;53.556;9.914;2023-12-20T12:01:31;10.50;;;1.20;;
71606;SDS011;60641;53.556;9.914;2023-12-20T12:04:07;9.30;;;1.00;;
71606;SDS011;60641;53.556;9.914;2023-12-20T12:06:33;8.70;;;1.20;;
71606;SDS011;60641;53.556;9.914;2023-12-20T12:09:00;9.80;;;1.00;;
71606;SDS011;60641;53.556;9.914;2023-12-20T12:11:27;9.40;;;1.00;;
71606;SDS011;60641;53.556;9.914;2023-12-20T12:13:54;11.60;;;1.00;;
71606;SDS011;60641;53.556;9.914;2023-12-20T12:16:20;9.10;;;1.10;;
71606;SDS011;60641;53.556;9.914;2023-12-20T12:18:54;9.50;;;1.00;;
71606;SDS011;60641;53.556;9.914;2023-12-20T12:21:22;8.30;;;1.00;;
71606;SDS011;60641;53.556;9.914;2023-12-20T12:23:48;10.50;;;1.60;;
71606;SDS011;60641;53.556;9.914;2023-12-20T12:26:15;9.70;;;1.00;;
71606;SDS011;60641;53.556;9.914;2023-12-20T12:28:42;9.50;;;1.10;;
71606;SDS011;60641;53.556;9.914;2023-12-20T12:31:09;11.90;;;1.20;;
71606;SDS011;60641;53.556;9.914;2023-12-20T12:33:42;13.90;;;1.50;;
71606;SDS011;60641;53.556;9.914;2023-12-20T12:36:10;11.70;;;1.20;;
71606;SDS011;60641;53.556;9.914;2023-12-20T12:38:37;10.60;;;1.10;;
71606;SDS011;60641;53.556;9.914;2023-12-20T12:41:04;10.60;;;1.20;;
71606;SDS011;60641;53.556;9.914;2023-12-20T12:43:31;10.30;;;1.30;;
71606;SDS011;60641;53.556;9.914;2023-12-20T12:45:58;11.60;;;1.50;;
71606;SDS011;60641;53.556;9.914;2023-12-20T12:48:24;9.20;;;0.90;;
71606;SDS011;60641;53.556;9.914;2023-12-20T12:50:51;11.80;;;1.30;;
71606;SDS011;60641;53.556;9.914;2023-12-20T12:53:19;9.90;;;1.00;;
71606;SDS011;60641;53.556;9.914;2023-12-20T12:55:45;11.10;;;1.30;;
71606;SDS011;60641;53.556;9.914;2023-12-20T12:58:12;10.90;;;1.00;;
71606;SDS011;60641;53.556;9.914;2023-12-20T13:00:38;11.60;;;1.10;;
71606;SDS011;60641;53.556;9.914;2023-12-20T13:03:05;7.80;;;1.00;;
71606;SDS011;60641;53.556;9.914;2023-12-20T13:05:31;8.50;;;1.10;;
71606;SDS011;60641;53.556;9.914;2023-12-20T13:07:58;9.10;;;0.90;;
71606;SDS011;60641;53.556;9.914;2023-12-20T13:10:24;12.80;;;1.20;;
71606;SDS011;60641;53.556;9.914;2023-12-20T13:12:51;11.90;;;1.50;;
71606;SDS011;60641;53.556;9.914;2023-12-20T13:15:17;12.30;;;1.30;;
71606;SDS011;60641;53.556;9.914;2023-12-20T13:17:44;11.10;;;1.20;;
71606;SDS011;60641;53.556;9.914;2023-12-20T13:20:12;8.70;;;1.00;;
71606;SDS011;60641;53.556;9.914;2023-12-20T13:22:39;12.50;;;1.20;;
71606;SDS011;60641;53.556;9.914;2023-12-20T13:25:05;9.50;;;1.30;;
71606;SDS011;60641;53.556;9.914;2023-12-20T13:27:32;11.70;;;1.30;;
71606;SDS011;60641;53.556;9.914;2023-12-20T13:29:59;8.90;;;1.40;;
71606;SDS011;60641;53.556;9.914;2023-12-20T13:32:25;10.30;;;1.30;;
71606;SDS011;60641;53.556;9.914;2023-12-20T13:34:52;10.50;;;1.40;;
71606;SDS011;60641;53.556;9.914;2023-12-20T13:37:18;14.20;;;1.50;;
71606;SDS011;60641;53.556;9.914;2023-12-20T13:39:45;12.00;;;2.00;;
71606;SDS011;60641;53.556;9.914;2023-12-20T13:42:12;13.00;;;1.30;;
71606;SDS011;60641;53.556;9.914;2023-12-20T13:44:38;10.90;;;1.10;;
71606;SDS011;60641;53.556;9.914;2023-12-20T13:47:05;13.10;;;1.40;;
71606;SDS011;60641;53.556;9.914;2023-12-20T13:49:32;13.50;;;1.80;;
71606;SDS011;60641;53.556;9.914;2023-12-20T13:51:58;11.60;;;1.40;;
71606;SDS011;60641;53.556;9.914;2023-12-20T13:54:25;14.00;;;2.30;;
71606;SDS011;60641;53.556;9.914;2023-12-20T13:56:52;9.90;;;1.40;;
71606;SDS011;60641;53.556;9.914;2023-12-20T13:59:18;14.90;;;1.80;;
71606;SDS011;60641;53.556;9.914;2023-12-20T14:01:45;13.90;;;2.00;;
71606;SDS011;60641;53.556;9.914;2023-12-20T14:04:11;11.90;;;1.70;;
71606;SDS011;60641;53.556;9.914;2023-12-20T14:06:38;13.60;;;1.80;;
71606;SDS011;60641;53.556;9.914;2023-12-20T14:09:04;18.70;;;2.10;;
71606;SDS011;60641;53.556;9.914;2023-12-20T14:11:31;12.30;;;1.80;;
71606;SDS011;60641;53.556;9.914;2023-12-20T14:13:57;13.30;;;1.90;;
71606;SDS011;60641;53.556;9.914;2023-12-20T14:16:24;11.00;;;1.50;;
71606;SDS011;60641;53.556;9.914;2023-12-20T14:18:51;15.40;;;2.10;;
71606;SDS011;60641;53.556;9.914;2023-12-20T14:21:18;16.50;;;1.80;;
71606;SDS011;60641;53.556;9.914;2023-12-20T14:23:46;15.40;;;1.80;;
71606;SDS011;60641;53.556;9.914;2023-12-20T14:26:12;13.80;;;1.90;;
71606;SDS011;60641;53.556;9.914;2023-12-20T14:28:41;14.30;;;2.40;;
71606;SDS011;60641;53.556;9.914;2023-12-20T14:31:08;14.40;;;1.80;;
71606;SDS011;60641;53.556;9.914;2023-12-20T14:33:36;10.50;;;1.50;;
71606;SDS011;60641;53.556;9.914;2023-12-20T14:36:05;13.50;;;1.80;;
71606;SDS011;60641;53.556;9.914;2023-12-20T14:38:32;15.40;;;2.00;;
71606;SDS011;60641;53.556;9.914;2023-12-20T14:40:58;16.40;;;2.60;;
71606;SDS011;60641;53.556;9.914;2023-12-20T14:43:25;11.10;;;1.70;;
71606;SDS011;60641;53.556;9.914;2023-12-20T14:45:52;11.10;;;1.50;;